Weather


ICAO METAR
KAPA KAPA 080953Z 14005KT 10SM FEW150 BKN220 05/M06 A2986 RMK AO2 SLP081 T00501061 $
KASE KASE 080956Z AUTO 17003KT 3SM -SN BR BKN030 OVC050 M02/M03 A3003 RMK AO2 P0000 T10171033
KBJC KBJC 081012Z AUTO 26010G16KT 10SM CLR 10/M06 A2984 RMK AO2
KBKF KBKF 080958Z 17007KT 10SM FEW160 BKN220 05/M06 A2986 RMK AO2A SLP074 T00461060
KCOS KCOS 080954Z 07008KT 10SM OVC220 07/M07 A2989 RMK AO2 SLP077 T00671067 $
KCPR KCPR 080953Z AUTO 22018G28KT 10SM CLR 03/M02 A2982 RMK AO2 PK WND 21032/0930 SNB32E38 SLP095 P0000 T00281017
KCYS KCYS 080953Z AUTO 25018KT 10SM CLR 06/M05 A2986 RMK AO2 SLP078 T00611050
KDEN KDEN 080953Z VRB04KT 10SM FEW200 BKN250 04/M04 A2984 RMK AO2 SLP071 T00391039
KEGE KEGE 080956Z AUTO 07004KT 10SM BKN055 OVC070 M01/M03 A3005 RMK AO2 SLP188 T10111033 FZRANO PNO $
KFCS KFCS 080958Z AUTO 02007KT 10SM CLR 04/M06 A2988 RMK AO2 SLP102 T00411059 $
KFMN KFMN 080953Z AUTO 01003KT 4SM RA BR SCT016 BKN032 OVC041 04/02 A3010 RMK AO2 RAB22 SLP182 P0004 T00390017
KFTG KFTG 081012Z AUTO 19011G18KT 10SM CLR 05/M03 A2984 RMK AO2 T00501034
KGCC KGCC 080953Z AUTO 22013KT 10SM CLR 03/M03 A2972 RMK AO2 SLP064 T00331028 $
KGJT KGJT 080953Z AUTO 00000KT 10SM OVC047 03/01 A3000 RMK AO2 RAE12 SLP147 P0000 T00330011
KPUB KPUB 080953Z AUTO 29010KT 10SM CLR 11/M04 A2985 RMK AO2 SLP066 T01111039
KRAP KRAP 080952Z AUTO 29007KT 10SM CLR 01/M06 A2973 RMK AO2 SLP082 T00111056
KRCA KRCA 080956Z AUTO 25005KT 10SM CLR M02/M07 A2972 RMK AO2 SLP086 T10161071

Surface Data
Click here.

This is a composite map contain the following analyses: radar summary (color filled areas), surface data plot (composite station model), frontal locations (in various bold lines) and pressure contours (in thin blue lines).